sensor_id;sensor_type;location;lat;lon;timestamp;temperature;humidity
38488;DHT22;57384;51.986;4.458;2022-12-07T00:01:27;5.60;86.90
38488;DHT22;57384;51.986;4.458;2022-12-07T00:03:56;5.60;86.80
38488;DHT22;57384;51.986;4.458;2022-12-07T00:06:26;5.60;87.30
38488;DHT22;57384;51.986;4.458;2022-12-07T00:08:53;5.60;86.70
38488;DHT22;57384;51.986;4.458;2022-12-07T00:11:23;5.60;86.70
38488;DHT22;57384;51.986;4.458;2022-12-07T00:14:01;5.70;86.80
38488;DHT22;57384;51.986;4.458;2022-12-07T00:16:30;5.70;86.90
38488;DHT22;57384;51.986;4.458;2022-12-07T00:19:11;5.70;86.90
38488;DHT22;57384;51.986;4.458;2022-12-07T00:21:52;5.70;86.90
38488;DHT22;57384;51.986;4.458;2022-12-07T00:24:28;5.70;86.90
38488;DHT22;57384;51.986;4.458;2022-12-07T00:27:07;5.70;86.90
38488;DHT22;57384;51.986;4.458;2022-12-07T00:29:34;5.70;86.90
38488;DHT22;57384;51.986;4.458;2022-12-07T00:32:08;5.70;86.80
38488;DHT22;57384;51.986;4.458;2022-12-07T00:34:37;5.70;86.90
38488;DHT22;57384;51.986;4.458;2022-12-07T00:37:04;5.60;86.80
38488;DHT22;57384;51.986;4.458;2022-12-07T00:39:33;5.60;86.80
38488;DHT22;57384;51.986;4.458;2022-12-07T00:42:05;5.60;86.80
38488;DHT22;57384;51.986;4.458;2022-12-07T00:44:35;5.60;86.80
38488;DHT22;57384;51.986;4.458;2022-12-07T00:47:01;5.60;86.80
38488;DHT22;57384;51.986;4.458;2022-12-07T00:49:28;5.60;86.70
38488;DHT22;57384;51.986;4.458;2022-12-07T00:51:54;5.60;86.70
38488;DHT22;57384;51.986;4.458;2022-12-07T00:54:21;5.60;86.70
38488;DHT22;57384;51.986;4.458;2022-12-07T00:56:48;5.60;86.70
38488;DHT22;57384;51.986;4.458;2022-12-07T00:59:14;5.50;86.60
38488;DHT22;57384;51.986;4.458;2022-12-07T01:01:44;5.50;86.60
38488;DHT22;57384;51.986;4.458;2022-12-07T01:04:34;5.50;86.60
38488;DHT22;57384;51.986;4.458;2022-12-07T01:07:04;5.50;86.60
38488;DHT22;57384;51.986;4.458;2022-12-07T01:09:34;5.50;86.60
38488;DHT22;57384;51.986;4.458;2022-12-07T01:12:03;5.50;86.60
38488;DHT22;57384;51.986;4.458;2022-12-07T01:14:30;5.40;86.50
38488;DHT22;57384;51.986;4.458;2022-12-07T01:16:58;5.40;86.50
38488;DHT22;57384;51.986;4.458;2022-12-07T01:19:25;5.40;86.60
38488;DHT22;57384;51.986;4.458;2022-12-07T01:21:52;5.30;86.50
38488;DHT22;57384;51.986;4.458;2022-12-07T01:24:19;5.30;86.50
38488;DHT22;57384;51.986;4.458;2022-12-07T01:26:49;5.30;86.50
38488;DHT22;57384;51.986;4.458;2022-12-07T01:29:16;5.30;86.60
38488;DHT22;57384;51.986;4.458;2022-12-07T01:31:53;5.30;86.50
38488;DHT22;57384;51.986;4.458;2022-12-07T01:34:28;5.30;86.60
38488;DHT22;57384;51.986;4.458;2022-12-07T01:37:00;5.20;86.50
38488;DHT22;57384;51.986;4.458;2022-12-07T01:39:32;5.20;86.50
38488;DHT22;57384;51.986;4.458;2022-12-07T01:41:59;5.20;86.60
38488;DHT22;57384;51.986;4.458;2022-12-07T01:44:27;5.10;86.50
38488;DHT22;57384;51.986;4.458;2022-12-07T01:47:03;5.20;86.50
38488;DHT22;57384;51.986;4.458;2022-12-07T01:49:40;5.10;86.50
38488;DHT22;57384;51.986;4.458;2022-12-07T01:52:31;5.10;86.50
38488;DHT22;57384;51.986;4.458;2022-12-07T01:55:02;5.10;86.50
38488;DHT22;57384;51.986;4.458;2022-12-07T01:57:33;5.10;86.50
38488;DHT22;57384;51.986;4.458;2022-12-07T02:00:01;5.00;86.50
38488;DHT22;57384;51.986;4.458;2022-12-07T02:02:33;5.00;86.50
38488;DHT22;57384;51.986;4.458;2022-12-07T02:05:02;5.00;86.60
38488;DHT22;57384;51.986;4.458;2022-12-07T02:07:41;5.10;86.60
38488;DHT22;57384;51.986;4.458;2022-12-07T02:10:14;5.00;86.60
38488;DHT22;57384;51.986;4.458;2022-12-07T02:12:43;5.00;86.70
38488;DHT22;57384;51.986;4.458;2022-12-07T02:15:19;5.00;86.70
38488;DHT22;57384;51.986;4.458;2022-12-07T02:18:10;5.00;86.70
38488;DHT22;57384;51.986;4.458;2022-12-07T02:20:50;5.00;86.80
38488;DHT22;57384;51.986;4.458;2022-12-07T02:23:37;5.00;86.70
38488;DHT22;57384;51.986;4.458;2022-12-07T02:26:19;4.90;86.60
38488;DHT22;57384;51.986;4.458;2022-12-07T02:32:11;5.00;86.70
38488;DHT22;57384;51.986;4.458;2022-12-07T02:34:55;4.90;86.70
38488;DHT22;57384;51.986;4.458;2022-12-07T02:45:36;4.90;86.70
38488;DHT22;57384;51.986;4.458;2022-12-07T02:48:06;4.90;86.60
38488;DHT22;57384;51.986;4.458;2022-12-07T02:50:33;4.80;86.50
38488;DHT22;57384;51.986;4.458;2022-12-07T02:53:00;4.80;86.60
38488;DHT22;57384;51.986;4.458;2022-12-07T02:55:34;4.90;86.70
38488;DHT22;57384;51.986;4.458;2022-12-07T02:58:30;4.80;86.70
38488;DHT22;57384;51.986;4.458;2022-12-07T03:04:02;4.80;86.60
38488;DHT22;57384;51.986;4.458;2022-12-07T03:06:38;4.80;86.60
38488;DHT22;57384;51.986;4.458;2022-12-07T03:09:15;4.80;86.60
38488;DHT22;57384;51.986;4.458;2022-12-07T03:12:00;4.80;86.70
38488;DHT22;57384;51.986;4.458;2022-12-07T03:14:40;4.80;86.60
38488;DHT22;57384;51.986;4.458;2022-12-07T03:17:22;4.80;86.70
38488;DHT22;57384;51.986;4.458;2022-12-07T03:19:54;4.80;86.70
38488;DHT22;57384;51.986;4.458;2022-12-07T03:22:25;4.80;86.70
38488;DHT22;57384;51.986;4.458;2022-12-07T03:24:58;4.80;86.70
38488;DHT22;57384;51.986;4.458;2022-12-07T03:27:34;4.80;86.80
38488;DHT22;57384;51.986;4.458;2022-12-07T03:30:07;4.80;86.90
38488;DHT22;57384;51.986;4.458;2022-12-07T03:32:43;4.80;86.90
38488;DHT22;57384;51.986;4.458;2022-12-07T03:35:34;4.80;86.90
38488;DHT22;57384;51.986;4.458;2022-12-07T03:38:18;4.80;87.00
38488;DHT22;57384;51.986;4.458;2022-12-07T03:41:01;4.80;86.90
38488;DHT22;57384;51.986;4.458;2022-12-07T03:43:30;4.80;87.00
38488;DHT22;57384;51.986;4.458;2022-12-07T03:55:15;4.80;86.90
38488;DHT22;57384;51.986;4.458;2022-12-07T03:57:47;4.80;87.00
38488;DHT22;57384;51.986;4.458;2022-12-07T04:00:15;4.80;86.90
38488;DHT22;57384;51.986;4.458;2022-12-07T04:02:52;4.80;87.00
38488;DHT22;57384;51.986;4.458;2022-12-07T04:05:19;4.90;87.20
38488;DHT22;57384;51.986;4.458;2022-12-07T04:07:46;4.90;87.10
38488;DHT22;57384;51.986;4.458;2022-12-07T04:10:13;4.80;87.10
38488;DHT22;57384;51.986;4.458;2022-12-07T04:12:43;4.80;87.20
38488;DHT22;57384;51.986;4.458;2022-12-07T04:15:10;4.80;87.20
38488;DHT22;57384;51.986;4.458;2022-12-07T04:17:37;4.80;87.20
38488;DHT22;57384;51.986;4.458;2022-12-07T04:20:05;4.80;87.20
38488;DHT22;57384;51.986;4.458;2022-12-07T04:22:33;4.80;87.20
38488;DHT22;57384;51.986;4.458;2022-12-07T04:25:00;4.80;87.30
38488;DHT22;57384;51.986;4.458;2022-12-07T04:27:27;4.80;87.20
38488;DHT22;57384;51.986;4.458;2022-12-07T04:30:01;4.80;87.20
38488;DHT22;57384;51.986;4.458;2022-12-07T04:32:31;4.90;87.40
38488;DHT22;57384;51.986;4.458;2022-12-07T04:34:57;4.80;87.20
38488;DHT22;57384;51.986;4.458;2022-12-07T04:37:27;4.80;87.20
38488;DHT22;57384;51.986;4.458;2022-12-07T04:39:53;4.80;87.20
38488;DHT22;57384;51.986;4.458;2022-12-07T04:42:25;4.80;87.20
38488;DHT22;57384;51.986;4.458;2022-12-07T04:44:52;4.80;87.20
38488;DHT22;57384;51.986;4.458;2022-12-07T04:47:20;4.80;87.20
38488;DHT22;57384;51.986;4.458;2022-12-07T04:49:50;4.80;87.10
38488;DHT22;57384;51.986;4.458;2022-12-07T04:52:17;4.80;87.20
38488;DHT22;57384;51.986;4.458;2022-12-07T04:54:43;4.70;87.10
38488;DHT22;57384;51.986;4.458;2022-12-07T04:57:10;4.70;87.10
38488;DHT22;57384;51.986;4.458;2022-12-07T04:59:37;4.70;87.10
38488;DHT22;57384;51.986;4.458;2022-12-07T05:02:03;4.70;87.00
38488;DHT22;57384;51.986;4.458;2022-12-07T05:04:30;4.70;87.00
38488;DHT22;57384;51.986;4.458;2022-12-07T05:06:57;4.70;87.00
38488;DHT22;57384;51.986;4.458;2022-12-07T05:09:29;4.60;87.00
38488;DHT22;57384;51.986;4.458;2022-12-07T05:11:55;4.70;87.00
38488;DHT22;57384;51.986;4.458;2022-12-07T05:14:24;4.70;87.00
38488;DHT22;57384;51.986;4.458;2022-12-07T05:16:51;4.60;87.00
38488;DHT22;57384;51.986;4.458;2022-12-07T05:19:18;4.70;87.00
38488;DHT22;57384;51.986;4.458;2022-12-07T05:21:45;4.60;87.50
38488;DHT22;57384;51.986;4.458;2022-12-07T05:24:18;4.60;87.00
38488;DHT22;57384;51.986;4.458;2022-12-07T05:26:48;4.60;87.00
38488;DHT22;57384;51.986;4.458;2022-12-07T05:29:16;4.70;87.10
38488;DHT22;57384;51.986;4.458;2022-12-07T05:31:43;4.50;87.00
38488;DHT22;57384;51.986;4.458;2022-12-07T05:34:16;4.60;87.10
38488;DHT22;57384;51.986;4.458;2022-12-07T05:36:47;4.60;87.10
38488;DHT22;57384;51.986;4.458;2022-12-07T05:39:14;4.50;87.00
38488;DHT22;57384;51.986;4.458;2022-12-07T05:41:41;4.60;87.00
38488;DHT22;57384;51.986;4.458;2022-12-07T05:44:08;4.50;87.00
38488;DHT22;57384;51.986;4.458;2022-12-07T05:46:37;4.50;86.90
38488;DHT22;57384;51.986;4.458;2022-12-07T05:49:06;4.50;87.00
38488;DHT22;57384;51.986;4.458;2022-12-07T05:51:33;4.50;86.90
38488;DHT22;57384;51.986;4.458;2022-12-07T05:54:05;4.50;86.90
38488;DHT22;57384;51.986;4.458;2022-12-07T05:56:34;4.50;86.90
38488;DHT22;57384;51.986;4.458;2022-12-07T05:59:03;4.50;86.90
38488;DHT22;57384;51.986;4.458;2022-12-07T06:01:42;4.50;86.90
38488;DHT22;57384;51.986;4.458;2022-12-07T06:04:23;4.50;86.90
38488;DHT22;57384;51.986;4.458;2022-12-07T06:06:55;4.40;86.80
38488;DHT22;57384;51.986;4.458;2022-12-07T06:09:23;4.40;86.80
38488;DHT22;57384;51.986;4.458;2022-12-07T06:11:50;4.40;86.80
38488;DHT22;57384;51.986;4.458;2022-12-07T06:14:17;4.40;86.70
38488;DHT22;57384;51.986;4.458;2022-12-07T06:16:43;4.30;86.60
38488;DHT22;57384;51.986;4.458;2022-12-07T06:19:14;4.30;86.70
38488;DHT22;57384;51.986;4.458;2022-12-07T06:21:43;4.30;86.70
38488;DHT22;57384;51.986;4.458;2022-12-07T06:24:14;4.30;86.70
38488;DHT22;57384;51.986;4.458;2022-12-07T06:26:48;4.30;86.70
38488;DHT22;57384;51.986;4.458;2022-12-07T06:29:18;4.20;86.70
38488;DHT22;57384;51.986;4.458;2022-12-07T06:31:45;4.30;86.70
38488;DHT22;57384;51.986;4.458;2022-12-07T06:34:17;4.20;86.60
38488;DHT22;57384;51.986;4.458;2022-12-07T06:36:45;4.20;86.70
38488;DHT22;57384;51.986;4.458;2022-12-07T06:39:40;4.20;86.70
38488;DHT22;57384;51.986;4.458;2022-12-07T06:42:12;4.20;86.70
38488;DHT22;57384;51.986;4.458;2022-12-07T06:44:38;4.20;86.60
38488;DHT22;57384;51.986;4.458;2022-12-07T06:47:05;4.20;86.60
38488;DHT22;57384;51.986;4.458;2022-12-07T06:49:36;4.10;86.60
38488;DHT22;57384;51.986;4.458;2022-12-07T06:52:03;4.10;86.60
38488;DHT22;57384;51.986;4.458;2022-12-07T06:54:31;4.10;86.60
38488;DHT22;57384;51.986;4.458;2022-12-07T06:57:10;4.10;86.60
38488;DHT22;57384;51.986;4.458;2022-12-07T06:59:42;4.10;86.70
38488;DHT22;57384;51.986;4.458;2022-12-07T07:02:17;4.10;86.60
38488;DHT22;57384;51.986;4.458;2022-12-07T07:04:49;4.00;86.60
38488;DHT22;57384;51.986;4.458;2022-12-07T07:07:26;4.10;86.70
38488;DHT22;57384;51.986;4.458;2022-12-07T07:09:53;4.10;86.70
38488;DHT22;57384;51.986;4.458;2022-12-07T07:12:22;4.10;86.70
38488;DHT22;57384;51.986;4.458;2022-12-07T07:14:49;4.00;86.70
38488;DHT22;57384;51.986;4.458;2022-12-07T07:17:16;4.10;86.70
38488;DHT22;57384;51.986;4.458;2022-12-07T07:19:42;4.10;86.70
38488;DHT22;57384;51.986;4.458;2022-12-07T07:22:14;4.10;86.70
38488;DHT22;57384;51.986;4.458;2022-12-07T07:24:40;4.00;86.60
38488;DHT22;57384;51.986;4.458;2022-12-07T07:27:10;4.00;86.60
38488;DHT22;57384;51.986;4.458;2022-12-07T07:29:39;4.00;86.70
38488;DHT22;57384;51.986;4.458;2022-12-07T07:32:06;4.10;86.60
38488;DHT22;57384;51.986;4.458;2022-12-07T07:34:40;4.00;86.50
38488;DHT22;57384;51.986;4.458;2022-12-07T07:37:09;4.00;86.50
38488;DHT22;57384;51.986;4.458;2022-12-07T07:39:35;4.10;86.60
38488;DHT22;57384;51.986;4.458;2022-12-07T07:42:02;4.00;86.50
38488;DHT22;57384;51.986;4.458;2022-12-07T07:44:29;4.00;86.60
38488;DHT22;57384;51.986;4.458;2022-12-07T07:47:02;4.00;86.60
38488;DHT22;57384;51.986;4.458;2022-12-07T07:49:47;4.10;87.30
38488;DHT22;57384;51.986;4.458;2022-12-07T07:52:14;4.10;86.70
38488;DHT22;57384;51.986;4.458;2022-12-07T07:54:40;4.10;86.70
38488;DHT22;57384;51.986;4.458;2022-12-07T07:57:11;4.10;86.70
38488;DHT22;57384;51.986;4.458;2022-12-07T07:59:38;4.20;86.90
38488;DHT22;57384;51.986;4.458;2022-12-07T08:02:15;4.20;86.80
38488;DHT22;57384;51.986;4.458;2022-12-07T08:04:43;4.20;86.90
38488;DHT22;57384;51.986;4.458;2022-12-07T08:07:12;4.20;86.80
38488;DHT22;57384;51.986;4.458;2022-12-07T08:09:41;4.20;86.90
38488;DHT22;57384;51.986;4.458;2022-12-07T08:12:11;4.30;87.00
38488;DHT22;57384;51.986;4.458;2022-12-07T08:14:40;4.30;87.10
38488;DHT22;57384;51.986;4.458;2022-12-07T08:17:07;4.30;87.20
38488;DHT22;57384;51.986;4.458;2022-12-07T08:19:34;4.30;87.20
38488;DHT22;57384;51.986;4.458;2022-12-07T08:22:03;4.30;87.30
38488;DHT22;57384;51.986;4.458;2022-12-07T08:24:32;4.30;87.30
38488;DHT22;57384;51.986;4.458;2022-12-07T08:27:03;4.30;87.30
38488;DHT22;57384;51.986;4.458;2022-12-07T08:29:32;4.40;87.50
38488;DHT22;57384;51.986;4.458;2022-12-07T08:32:13;4.20;87.50
38488;DHT22;57384;51.986;4.458;2022-12-07T08:34:52;4.40;87.70
38488;DHT22;57384;51.986;4.458;2022-12-07T08:37:25;4.40;87.70
38488;DHT22;57384;51.986;4.458;2022-12-07T08:40:29;4.40;87.60
38488;DHT22;57384;51.986;4.458;2022-12-07T08:42:59;4.40;87.80
38488;DHT22;57384;51.986;4.458;2022-12-07T08:45:46;4.40;87.60
38488;DHT22;57384;51.986;4.458;2022-12-07T08:48:14;4.30;87.70
38488;DHT22;57384;51.986;4.458;2022-12-07T08:53:44;4.40;87.80
38488;DHT22;57384;51.986;4.458;2022-12-07T08:56:18;4.40;87.70
38488;DHT22;57384;51.986;4.458;2022-12-07T08:58:58;4.40;87.70
38488;DHT22;57384;51.986;4.458;2022-12-07T09:01:33;4.40;87.70
38488;DHT22;57384;51.986;4.458;2022-12-07T09:04:11;4.50;87.90
38488;DHT22;57384;51.986;4.458;2022-12-07T09:07:18;4.50;87.80
38488;DHT22;57384;51.986;4.458;2022-12-07T09:09:47;4.50;87.80
38488;DHT22;57384;51.986;4.458;2022-12-07T09:12:14;4.60;87.70
38488;DHT22;57384;51.986;4.458;2022-12-07T09:15:00;4.60;87.70
38488;DHT22;57384;51.986;4.458;2022-12-07T09:17:32;4.70;88.30
38488;DHT22;57384;51.986;4.458;2022-12-07T09:20:16;4.70;87.70
38488;DHT22;57384;51.986;4.458;2022-12-07T09:23:15;4.70;87.80
38488;DHT22;57384;51.986;4.458;2022-12-07T09:25:50;4.90;87.80
38488;DHT22;57384;51.986;4.458;2022-12-07T09:28:17;5.00;87.80
38488;DHT22;57384;51.986;4.458;2022-12-07T09:30:49;5.00;87.70
38488;DHT22;57384;51.986;4.458;2022-12-07T09:33:28;5.00;87.80
38488;DHT22;57384;51.986;4.458;2022-12-07T09:35:57;5.00;87.80
38488;DHT22;57384;51.986;4.458;2022-12-07T09:38:24;5.10;87.90
38488;DHT22;57384;51.986;4.458;2022-12-07T09:43:39;5.10;88.10
38488;DHT22;57384;51.986;4.458;2022-12-07T09:46:14;5.20;88.20
38488;DHT22;57384;51.986;4.458;2022-12-07T09:48:44;5.20;88.30
38488;DHT22;57384;51.986;4.458;2022-12-07T09:51:23;5.30;88.40
38488;DHT22;57384;51.986;4.458;2022-12-07T09:53:57;5.40;88.40
38488;DHT22;57384;51.986;4.458;2022-12-07T09:56:38;5.40;88.90
38488;DHT22;57384;51.986;4.458;2022-12-07T09:59:28;5.50;88.60
38488;DHT22;57384;51.986;4.458;2022-12-07T10:01:55;5.60;88.50
38488;DHT22;57384;51.986;4.458;2022-12-07T10:04:37;5.60;88.40
38488;DHT22;57384;51.986;4.458;2022-12-07T10:07:06;5.70;88.70
38488;DHT22;57384;51.986;4.458;2022-12-07T10:09:50;5.70;88.50
38488;DHT22;57384;51.986;4.458;2022-12-07T10:12:27;5.80;88.60
38488;DHT22;57384;51.986;4.458;2022-12-07T10:15:08;5.80;88.70
38488;DHT22;57384;51.986;4.458;2022-12-07T10:18:01;6.00;88.70
38488;DHT22;57384;51.986;4.458;2022-12-07T10:20:28;6.10;89.00
38488;DHT22;57384;51.986;4.458;2022-12-07T10:25:59;6.20;89.00
38488;DHT22;57384;51.986;4.458;2022-12-07T10:28:50;6.30;88.70
38488;DHT22;57384;51.986;4.458;2022-12-07T10:31:42;6.40;88.40
38488;DHT22;57384;51.986;4.458;2022-12-07T10:34:31;6.40;88.00
38488;DHT22;57384;51.986;4.458;2022-12-07T10:37:21;6.40;88.10
38488;DHT22;57384;51.986;4.458;2022-12-07T10:40:26;6.50;88.40
38488;DHT22;57384;51.986;4.458;2022-12-07T10:43:18;6.60;88.50
38488;DHT22;57384;51.986;4.458;2022-12-07T10:51:33;6.80;88.40
38488;DHT22;57384;51.986;4.458;2022-12-07T11:05:38;7.00;88.30
38488;DHT22;57384;51.986;4.458;2022-12-07T11:14:58;7.20;88.30
38488;DHT22;57384;51.986;4.458;2022-12-07T11:18:01;7.30;88.30
38488;DHT22;57384;51.986;4.458;2022-12-07T11:20:53;7.30;88.20
38488;DHT22;57384;51.986;4.458;2022-12-07T11:23:46;7.40;88.20
38488;DHT22;57384;51.986;4.458;2022-12-07T11:39:54;7.60;87.50
38488;DHT22;57384;51.986;4.458;2022-12-07T11:45:30;7.70;87.20
38488;DHT22;57384;51.986;4.458;2022-12-07T11:48:10;7.70;87.00
38488;DHT22;57384;51.986;4.458;2022-12-07T11:50:43;7.80;87.10
38488;DHT22;57384;51.986;4.458;2022-12-07T11:56:36;7.80;87.30
38488;DHT22;57384;51.986;4.458;2022-12-07T12:22:18;7.70;87.60
38488;DHT22;57384;51.986;4.458;2022-12-07T12:25:47;7.70;87.60
38488;DHT22;57384;51.986;4.458;2022-12-07T12:37:41;7.90;87.70
38488;DHT22;57384;51.986;4.458;2022-12-07T12:43:14;7.90;87.70
38488;DHT22;57384;51.986;4.458;2022-12-07T12:45:49;7.90;87.60
38488;DHT22;57384;51.986;4.458;2022-12-07T12:48:44;8.00;87.60
38488;DHT22;57384;51.986;4.458;2022-12-07T12:51:36;8.10;87.70
38488;DHT22;57384;51.986;4.458;2022-12-07T12:54:15;8.10;87.60
38488;DHT22;57384;51.986;4.458;2022-12-07T12:57:18;8.10;87.60
38488;DHT22;57384;51.986;4.458;2022-12-07T13:02:33;8.10;87.50
38488;DHT22;57384;51.986;4.458;2022-12-07T13:13:01;8.20;87.40
38488;DHT22;57384;51.986;4.458;2022-12-07T13:15:51;8.20;87.30
38488;DHT22;57384;51.986;4.458;2022-12-07T13:26:17;8.30;87.10
38488;DHT22;57384;51.986;4.458;2022-12-07T13:28:51;8.30;87.00
38488;DHT22;57384;51.986;4.458;2022-12-07T13:34:01;8.30;87.00
38488;DHT22;57384;51.986;4.458;2022-12-07T13:36:39;8.30;87.00
38488;DHT22;57384;51.986;4.458;2022-12-07T13:39:25;8.30;87.00
38488;DHT22;57384;51.986;4.458;2022-12-07T13:42:15;8.30;87.00
38488;DHT22;57384;51.986;4.458;2022-12-07T13:44:44;8.30;87.00
38488;DHT22;57384;51.986;4.458;2022-12-07T13:47:46;8.30;87.00
38488;DHT22;57384;51.986;4.458;2022-12-07T13:50:33;8.30;87.10
38488;DHT22;57384;51.986;4.458;2022-12-07T13:53:14;8.20;86.90
38488;DHT22;57384;51.986;4.458;2022-12-07T13:55:47;8.30;87.00
38488;DHT22;57384;51.986;4.458;2022-12-07T13:58:17;8.30;87.00
38488;DHT22;57384;51.986;4.458;2022-12-07T14:00:44;8.20;87.00
38488;DHT22;57384;51.986;4.458;2022-12-07T14:06:26;8.20;87.00
38488;DHT22;57384;51.986;4.458;2022-12-07T14:09:39;8.10;86.80
38488;DHT22;57384;51.986;4.458;2022-12-07T14:12:13;8.30;86.90
38488;DHT22;57384;51.986;4.458;2022-12-07T14:14:47;8.20;87.00
38488;DHT22;57384;51.986;4.458;2022-12-07T14:17:25;8.20;86.80
38488;DHT22;57384;51.986;4.458;2022-12-07T14:20:33;8.20;86.80
38488;DHT22;57384;51.986;4.458;2022-12-07T14:23:24;8.20;86.70
38488;DHT22;57384;51.986;4.458;2022-12-07T14:26:03;8.20;86.70
38488;DHT22;57384;51.986;4.458;2022-12-07T14:28:37;8.20;86.60
38488;DHT22;57384;51.986;4.458;2022-12-07T14:31:16;8.20;86.70
38488;DHT22;57384;51.986;4.458;2022-12-07T14:33:51;8.20;86.70
38488;DHT22;57384;51.986;4.458;2022-12-07T14:36:27;8.20;86.60
38488;DHT22;57384;51.986;4.458;2022-12-07T14:38:57;8.20;86.60
38488;DHT22;57384;51.986;4.458;2022-12-07T14:41:28;8.20;86.60
38488;DHT22;57384;51.986;4.458;2022-12-07T14:43:57;8.20;86.60
38488;DHT22;57384;51.986;4.458;2022-12-07T14:46:24;8.20;86.60
38488;DHT22;57384;51.986;4.458;2022-12-07T14:48:54;8.10;86.60
38488;DHT22;57384;51.986;4.458;2022-12-07T14:54:05;8.10;86.60
38488;DHT22;57384;51.986;4.458;2022-12-07T14:56:35;8.10;86.60
38488;DHT22;57384;51.986;4.458;2022-12-07T14:59:04;8.10;87.20
38488;DHT22;57384;51.986;4.458;2022-12-07T15:01:31;8.10;86.60
38488;DHT22;57384;51.986;4.458;2022-12-07T15:03:57;8.10;86.60
38488;DHT22;57384;51.986;4.458;2022-12-07T15:06:30;8.10;86.60
38488;DHT22;57384;51.986;4.458;2022-12-07T15:09:20;8.10;86.60
38488;DHT22;57384;51.986;4.458;2022-12-07T15:11:52;8.00;86.50
38488;DHT22;57384;51.986;4.458;2022-12-07T15:14:22;8.10;86.60
38488;DHT22;57384;51.986;4.458;2022-12-07T15:16:53;8.00;86.60
38488;DHT22;57384;51.986;4.458;2022-12-07T15:19:26;8.00;86.50
38488;DHT22;57384;51.986;4.458;2022-12-07T15:22:27;8.00;86.50
38488;DHT22;57384;51.986;4.458;2022-12-07T15:25:09;8.00;86.50
38488;DHT22;57384;51.986;4.458;2022-12-07T15:27:43;8.00;86.50
38488;DHT22;57384;51.986;4.458;2022-12-07T15:30:10;8.00;86.50
38488;DHT22;57384;51.986;4.458;2022-12-07T15:32:37;7.90;86.50
38488;DHT22;57384;51.986;4.458;2022-12-07T15:35:06;7.90;86.40
38488;DHT22;57384;51.986;4.458;2022-12-07T15:37:50;7.90;86.40
38488;DHT22;57384;51.986;4.458;2022-12-07T15:40:48;7.90;86.40
38488;DHT22;57384;51.986;4.458;2022-12-07T15:43:32;7.90;86.40
38488;DHT22;57384;51.986;4.458;2022-12-07T15:46:17;7.80;86.40
38488;DHT22;57384;51.986;4.458;2022-12-07T15:48:59;7.80;86.40
38488;DHT22;57384;51.986;4.458;2022-12-07T15:52:15;7.80;86.50
38488;DHT22;57384;51.986;4.458;2022-12-07T15:54:47;7.80;86.50
38488;DHT22;57384;51.986;4.458;2022-12-07T16:00:34;7.70;86.40
38488;DHT22;57384;51.986;4.458;2022-12-07T16:03:17;7.70;86.40
38488;DHT22;57384;51.986;4.458;2022-12-07T16:06:19;7.60;86.40
38488;DHT22;57384;51.986;4.458;2022-12-07T16:09:32;7.60;86.40
38488;DHT22;57384;51.986;4.458;2022-12-07T16:20:17;7.60;86.30
38488;DHT22;57384;51.986;4.458;2022-12-07T16:36:36;7.40;86.20
38488;DHT22;57384;51.986;4.458;2022-12-07T16:39:35;7.40;86.20
38488;DHT22;57384;51.986;4.458;2022-12-07T16:49:30;7.30;86.20
38488;DHT22;57384;51.986;4.458;2022-12-07T17:05:47;7.20;86.20
38488;DHT22;57384;51.986;4.458;2022-12-07T17:09:03;7.10;86.10
38488;DHT22;57384;51.986;4.458;2022-12-07T17:15:41;7.10;86.20
38488;DHT22;57384;51.986;4.458;2022-12-07T17:18:51;7.10;86.10
38488;DHT22;57384;51.986;4.458;2022-12-07T17:21:40;7.00;86.10
38488;DHT22;57384;51.986;4.458;2022-12-07T17:24:29;7.00;86.10
38488;DHT22;57384;51.986;4.458;2022-12-07T17:27:22;7.00;86.10
38488;DHT22;57384;51.986;4.458;2022-12-07T17:30:21;7.00;86.10
38488;DHT22;57384;51.986;4.458;2022-12-07T17:33:11;7.00;86.20
38488;DHT22;57384;51.986;4.458;2022-12-07T17:36:24;7.00;86.10
38488;DHT22;57384;51.986;4.458;2022-12-07T17:39:10;7.00;86.10
38488;DHT22;57384;51.986;4.458;2022-12-07T17:41:55;6.90;86.00
38488;DHT22;57384;51.986;4.458;2022-12-07T17:44:41;6.90;86.00
38488;DHT22;57384;51.986;4.458;2022-12-07T17:47:25;6.90;86.00
38488;DHT22;57384;51.986;4.458;2022-12-07T17:50:12;6.90;86.00
38488;DHT22;57384;51.986;4.458;2022-12-07T17:52:56;6.90;86.00
38488;DHT22;57384;51.986;4.458;2022-12-07T17:55:40;6.90;86.00
38488;DHT22;57384;51.986;4.458;2022-12-07T17:58:24;6.90;86.00
38488;DHT22;57384;51.986;4.458;2022-12-07T18:01:09;6.90;86.00
38488;DHT22;57384;51.986;4.458;2022-12-07T18:03:54;6.90;86.10
38488;DHT22;57384;51.986;4.458;2022-12-07T18:06:39;6.90;86.30
38488;DHT22;57384;51.986;4.458;2022-12-07T18:09:23;6.90;86.00
38488;DHT22;57384;51.986;4.458;2022-12-07T18:12:08;6.90;86.10
38488;DHT22;57384;51.986;4.458;2022-12-07T18:14:55;6.90;86.10
38488;DHT22;57384;51.986;4.458;2022-12-07T18:17:41;6.80;86.00
38488;DHT22;57384;51.986;4.458;2022-12-07T18:20:28;6.80;86.00
38488;DHT22;57384;51.986;4.458;2022-12-07T18:23:12;6.80;86.00
38488;DHT22;57384;51.986;4.458;2022-12-07T18:25:57;6.80;86.00
38488;DHT22;57384;51.986;4.458;2022-12-07T18:28:42;6.80;86.00
38488;DHT22;57384;51.986;4.458;2022-12-07T18:31:35;6.80;86.10
38488;DHT22;57384;51.986;4.458;2022-12-07T18:34:19;6.80;86.00
38488;DHT22;57384;51.986;4.458;2022-12-07T18:37:03;6.80;86.00
38488;DHT22;57384;51.986;4.458;2022-12-07T18:39:47;6.80;86.00
38488;DHT22;57384;51.986;4.458;2022-12-07T18:42:32;6.80;86.10
38488;DHT22;57384;51.986;4.458;2022-12-07T18:45:16;6.80;86.00
38488;DHT22;57384;51.986;4.458;2022-12-07T18:48:01;6.80;86.10
38488;DHT22;57384;51.986;4.458;2022-12-07T18:50:46;6.70;86.00
38488;DHT22;57384;51.986;4.458;2022-12-07T18:53:32;6.70;86.00
38488;DHT22;57384;51.986;4.458;2022-12-07T18:56:19;6.70;86.00
38488;DHT22;57384;51.986;4.458;2022-12-07T18:59:04;6.70;86.00
38488;DHT22;57384;51.986;4.458;2022-12-07T19:01:52;6.70;86.00
38488;DHT22;57384;51.986;4.458;2022-12-07T19:04:36;6.70;86.00
38488;DHT22;57384;51.986;4.458;2022-12-07T19:07:20;6.70;86.00
38488;DHT22;57384;51.986;4.458;2022-12-07T19:10:05;6.70;86.00
38488;DHT22;57384;51.986;4.458;2022-12-07T19:12:49;6.70;86.00
38488;DHT22;57384;51.986;4.458;2022-12-07T19:15:39;6.60;86.10
38488;DHT22;57384;51.986;4.458;2022-12-07T19:18:26;6.70;86.10
38488;DHT22;57384;51.986;4.458;2022-12-07T19:21:10;6.60;86.10
38488;DHT22;57384;51.986;4.458;2022-12-07T19:24:01;6.60;86.10
38488;DHT22;57384;51.986;4.458;2022-12-07T19:26:50;6.60;86.10
38488;DHT22;57384;51.986;4.458;2022-12-07T19:29:56;6.60;86.20
38488;DHT22;57384;51.986;4.458;2022-12-07T19:32:45;6.60;86.20
38488;DHT22;57384;51.986;4.458;2022-12-07T19:35:50;6.60;86.10
38488;DHT22;57384;51.986;4.458;2022-12-07T19:38:34;6.60;86.30
38488;DHT22;57384;51.986;4.458;2022-12-07T19:41:23;6.60;86.20
38488;DHT22;57384;51.986;4.458;2022-12-07T19:44:17;6.50;86.20
38488;DHT22;57384;51.986;4.458;2022-12-07T19:50:01;6.50;86.20
38488;DHT22;57384;51.986;4.458;2022-12-07T19:52:45;6.50;86.20
38488;DHT22;57384;51.986;4.458;2022-12-07T19:55:30;6.50;86.30
38488;DHT22;57384;51.986;4.458;2022-12-07T19:58:24;6.50;86.30